Time;durP1;ratioP1;P1;durP2;ratioP2;P2;SDS_P1;SDS_P2;PMS_P1;PMS_P2;Temp;Humidity;BMP_temperature;BMP_pressure;BME280_temperature;BME280_humidity;BME280_pressure;Samples;Min_cycle;Max_cycle;Signal;HPM_P1;HPM_P2
2023/01/21 00:02:19;;;;;;;10.07;5.15;;;3.30;99.90;;;;;;5016009;28;20045;-78
2023/01/21 00:04:46;;;;;;;12.05;6.07;;;3.20;99.90;;;;;;4999454;28;20046;-81
2023/01/21 00:07:12;;;;;;;10.38;4.60;;;3.20;99.90;;;;;;5016620;28;20428;-80
2023/01/21 00:09:39;;;;;;;9.77;4.90;;;3.20;99.90;;;;;;5015770;28;20430;-78
2023/01/21 00:12:06;;;;;;;8.75;4.80;;;3.20;99.90;;;;;;4999517;28;20404;-77
2023/01/21 00:14:33;;;;;;;9.73;4.82;;;3.20;99.90;;;;;;4998945;28;20049;-79
2023/01/21 00:16:59;;;;;;;13.07;4.63;;;3.10;99.90;;;;;;5015643;28;20038;-81
2023/01/21 00:19:27;;;;;;;12.00;5.15;;;3.10;99.90;;;;;;4982486;28;20117;-79
2023/01/21 00:21:54;;;;;;;8.88;4.40;;;3.10;99.90;;;;;;4998779;28;20046;-78
2023/01/21 00:24:24;;;;;;;9.57;4.63;;;3.10;99.90;;;;;;4998661;28;20377;-79
2023/01/21 00:26:51;;;;;;;16.02;6.45;;;3.10;99.90;;;;;;4999309;28;20148;-77
2023/01/21 00:29:18;;;;;;;15.02;5.60;;;3.10;99.90;;;;;;4998259;28;20046;-81
2023/01/21 00:31:44;;;;;;;9.88;4.88;;;3.10;99.90;;;;;;4982635;28;20048;-81
2023/01/21 00:34:11;;;;;;;9.32;5.57;;;3.10;99.90;;;;;;4999688;28;20054;-81
2023/01/21 00:36:38;;;;;;;12.90;5.60;;;3.10;99.90;;;;;;4997951;28;20460;-80
2023/01/21 00:39:04;;;;;;;9.68;5.03;;;3.10;99.90;;;;;;4998891;28;20104;-80
2023/01/21 00:41:31;;;;;;;13.90;5.22;;;3.00;99.90;;;;;;5016249;28;20094;-78
2023/01/21 00:44:00;;;;;;;10.35;4.82;;;3.00;99.90;;;;;;5015085;28;20453;-79
2023/01/21 00:46:27;;;;;;;14.50;5.85;;;3.00;99.90;;;;;;5015947;28;20130;-79
2023/01/21 00:48:54;;;;;;;9.75;5.75;;;3.00;99.90;;;;;;5014943;28;20050;-79
2023/01/21 00:51:21;;;;;;;9.15;5.57;;;3.00;99.90;;;;;;5016183;28;20045;-78
2023/01/21 00:56:35;;;;;;;7.43;4.78;;;3.10;99.90;;;;;;5030409;28;20041;-81
2023/01/21 00:59:02;;;;;;;12.18;6.30;;;3.10;99.90;;;;;;5035341;28;20490;-78
2023/01/21 01:01:33;;;;;;;12.05;5.15;;;3.10;99.90;;;;;;5035447;28;20076;-80
2023/01/21 01:04:00;;;;;;;9.68;4.60;;;3.10;99.90;;;;;;5034705;28;20438;-81
2023/01/21 01:06:26;;;;;;;9.75;5.15;;;3.10;99.90;;;;;;5035168;28;20046;-80
2023/01/21 01:08:56;;;;;;;11.50;5.53;;;3.10;99.90;;;;;;5017069;28;20049;-81
2023/01/21 01:11:25;;;;;;;12.00;4.88;;;3.20;99.90;;;;;;5018543;28;20042;-82
2023/01/21 01:13:54;;;;;;;12.25;5.78;;;3.20;99.90;;;;;;5035228;28;20053;-79
2023/01/21 01:16:20;;;;;;;9.13;4.95;;;3.20;99.90;;;;;;5017068;28;20041;-81
2023/01/21 01:18:47;;;;;;;8.15;4.80;;;3.20;99.90;;;;;;5017814;28;20084;-79
2023/01/21 01:21:14;;;;;;;7.72;4.78;;;3.20;99.90;;;;;;5035036;28;20069;-81
2023/01/21 01:23:43;;;;;;;11.38;6.03;;;3.20;99.90;;;;;;5016945;28;20053;-81
2023/01/21 01:26:09;;;;;;;12.20;5.55;;;3.20;99.90;;;;;;5006985;28;20411;-79
2023/01/21 01:28:36;;;;;;;12.32;5.15;;;3.20;99.90;;;;;;4995831;28;20388;-81
2023/01/21 01:31:03;;;;;;;11.73;6.20;;;3.20;99.90;;;;;;4997368;28;20384;-77
2023/01/21 01:33:30;;;;;;;12.50;6.38;;;3.10;99.90;;;;;;4982075;28;20132;-81
2023/01/21 01:35:57;;;;;;;12.10;5.35;;;3.10;99.90;;;;;;5014220;28;20038;-79
2023/01/21 01:38:24;;;;;;;10.23;6.28;;;3.10;99.90;;;;;;4998144;28;20380;-80
2023/01/21 01:40:51;;;;;;;8.02;5.35;;;3.10;99.90;;;;;;5015240;28;20046;-79
2023/01/21 01:43:18;;;;;;;10.35;6.10;;;3.00;99.90;;;;;;4997133;28;20076;-78
2023/01/21 01:45:45;;;;;;;9.25;6.47;;;2.90;99.90;;;;;;4997370;28;20445;-80
2023/01/21 01:48:11;;;;;;;14.45;6.57;;;2.90;99.90;;;;;;4997758;28;20112;-79
2023/01/21 01:50:38;;;;;;;14.30;6.78;;;2.90;99.90;;;;;;4996833;28;20061;-79
2023/01/21 01:53:06;;;;;;;9.18;5.43;;;2.90;99.90;;;;;;4997689;28;20038;-82
2023/01/21 01:55:33;;;;;;;11.52;5.35;;;2.90;99.90;;;;;;5014077;28;20181;-79
2023/01/21 01:58:00;;;;;;;11.75;6.22;;;2.90;99.90;;;;;;4997770;28;20048;-80
2023/01/21 02:00:26;;;;;;;8.57;4.88;;;2.80;99.90;;;;;;5014940;28;20092;-80
2023/01/21 02:05:43;;;;;;;;;;;2.80;99.90;;;;;;5015155;28;20345;-81
2023/01/21 02:08:09;;;;;;;9.43;5.70;;;2.90;99.90;;;;;;4997605;28;20366;-79
2023/01/21 02:10:36;;;;;;;12.65;6.05;;;2.80;99.90;;;;;;4996653;28;20049;-78
2023/01/21 02:13:03;;;;;;;10.30;4.97;;;2.70;99.90;;;;;;4997542;28;20042;-78
2023/01/21 02:15:30;;;;;;;10.10;5.20;;;2.50;99.90;;;;;;5014723;28;20056;-79
2023/01/21 02:17:56;;;;;;;9.93;5.75;;;2.40;99.90;;;;;;5001155;28;20427;-79
2023/01/21 02:20:23;;;;;;;13.00;5.93;;;2.30;99.90;;;;;;5000552;28;20053;-78
2023/01/21 02:22:52;;;;;;;10.73;6.40;;;2.10;99.90;;;;;;4998326;28;20380;-80
2023/01/21 02:25:18;;;;;;;9.60;5.78;;;2.00;99.90;;;;;;5014662;28;20128;-77
2023/01/21 02:27:45;;;;;;;9.73;5.57;;;1.90;99.90;;;;;;4997984;28;20104;-80
2023/01/21 02:30:11;;;;;;;16.75;7.18;;;1.80;99.90;;;;;;5014193;28;20041;-77
2023/01/21 02:32:38;;;;;;;11.13;6.05;;;1.70;99.90;;;;;;4997259;28;20042;-78
2023/01/21 02:35:05;;;;;;;13.82;6.13;;;1.50;99.90;;;;;;4997273;28;20038;-79
2023/01/21 02:37:32;;;;;;;10.05;6.10;;;1.40;99.90;;;;;;5013237;28;20443;-79
2023/01/21 02:39:58;;;;;;;13.38;6.40;;;1.30;99.90;;;;;;5014482;28;20052;-79
2023/01/21 02:42:26;;;;;;;10.32;6.32;;;1.10;99.90;;;;;;4997575;28;20038;-78
2023/01/21 02:44:53;;;;;;;15.77;6.80;;;1.10;99.90;;;;;;5019908;28;20049;-81
2023/01/21 02:47:20;;;;;;;9.18;5.85;;;1.00;99.90;;;;;;5021106;28;20449;-79
2023/01/21 02:49:46;;;;;;;14.20;7.03;;;0.90;99.90;;;;;;5019391;28;20064;-79
2023/01/21 02:52:13;;;;;;;10.73;5.65;;;0.80;99.90;;;;;;5020664;28;20045;-79
2023/01/21 02:54:40;;;;;;;11.88;5.78;;;0.80;99.90;;;;;;5038061;28;20052;-79
2023/01/21 02:57:06;;;;;;;11.38;5.85;;;0.70;99.90;;;;;;5036975;28;20044;-78
2023/01/21 02:59:33;;;;;;;8.13;5.13;;;0.60;99.90;;;;;;5020602;28;20060;-77
2023/01/21 03:01:59;;;;;;;8.68;6.07;;;0.50;99.90;;;;;;5020077;28;20068;-81
2023/01/21 03:04:28;;;;;;;11.70;6.25;;;0.40;99.90;;;;;;5037718;28;20115;-80
2023/01/21 03:06:55;;;;;;;10.00;5.82;;;0.30;99.90;;;;;;5037399;28;20049;-79
2023/01/21 03:09:21;;;;;;;9.95;5.22;;;0.20;99.90;;;;;;5019325;28;20049;-78
2023/01/21 03:11:48;;;;;;;13.35;8.52;;;0.20;99.90;;;;;;5020058;28;20364;-79
2023/01/21 03:17:01;;;;;;;12.15;6.65;;;0.00;99.90;;;;;;5036506;28;20049;-80
2023/01/21 03:19:27;;;;;;;13.43;6.97;;;0.00;99.90;;;;;;5020477;28;20033;-80
2023/01/21 03:21:54;;;;;;;11.07;6.32;;;0.00;99.90;;;;;;5019670;28;20041;-78
2023/01/21 03:24:20;;;;;;;11.18;8.18;;;-0.10;99.90;;;;;;5019833;28;20037;-79
2023/01/21 03:26:47;;;;;;;9.07;6.32;;;-0.10;99.90;;;;;;5020061;28;20048;-81
2023/01/21 03:29:14;;;;;;;13.90;6.40;;;-0.10;99.90;;;;;;5019633;28;20053;-79
2023/01/21 03:31:40;;;;;;;10.45;5.35;;;-0.20;99.90;;;;;;5019761;28;20140;-78
2023/01/21 03:36:38;;;;;;;9.32;5.80;;;-0.30;99.90;;;;;;5036421;28;20033;-78
2023/01/21 03:39:04;;;;;;;9.40;6.07;;;-0.40;99.90;;;;;;5019507;28;20550;-79
2023/01/21 03:41:32;;;;;;;12.85;7.18;;;-0.50;99.90;;;;;;5019685;28;20056;-79
2023/01/21 03:43:59;;;;;;;10.38;6.60;;;-0.50;99.90;;;;;;5018686;28;20041;-80
2023/01/21 03:46:26;;;;;;;8.43;5.22;;;-0.60;99.90;;;;;;5036664;28;20525;-78
2023/01/21 03:48:52;;;;;;;13.07;6.40;;;-0.60;99.90;;;;;;5035684;28;20065;-79
2023/01/21 03:51:19;;;;;;;12.55;5.85;;;-0.70;99.90;;;;;;5019345;28;20353;-80
2023/01/21 03:53:48;;;;;;;9.95;6.32;;;-0.70;99.90;;;;;;5002267;28;20045;-80
2023/01/21 03:56:15;;;;;;;9.80;6.70;;;-0.70;99.90;;;;;;5036335;28;20033;-79
2023/01/21 03:58:41;;;;;;;11.40;6.20;;;-0.70;99.90;;;;;;5036697;28;20408;-80
2023/01/21 04:01:08;;;;;;;9.88;6.93;;;-0.70;99.90;;;;;;5036542;28;20048;-79
2023/01/21 04:03:36;;;;;;;11.07;7.15;;;-0.70;99.90;;;;;;5018598;28;20100;-81
2023/01/21 04:06:02;;;;;;;7.47;5.55;;;-0.70;99.90;;;;;;5036665;28;20045;-80
2023/01/21 04:08:29;;;;;;;10.20;5.38;;;-0.80;99.90;;;;;;5018972;28;20037;-80
2023/01/21 04:10:56;;;;;;;11.57;6.93;;;-0.80;99.90;;;;;;5018260;28;20045;-81
2023/01/21 04:13:24;;;;;;;12.07;6.40;;;-0.80;99.90;;;;;;5036417;28;20037;-78
2023/01/21 04:15:50;;;;;;;13.27;7.22;;;-0.90;99.90;;;;;;5035672;28;20049;-78
2023/01/21 04:18:17;;;;;;;10.95;6.38;;;-1.00;99.90;;;;;;5002345;28;20404;-79
2023/01/21 04:20:43;;;;;;;11.40;7.88;;;-1.00;99.90;;;;;;5018940;28;20041;-78
2023/01/21 04:23:11;;;;;;;13.50;6.70;;;-1.10;99.90;;;;;;5001759;28;20399;-78
2023/01/21 04:25:38;;;;;;;10.00;6.47;;;-1.10;99.90;;;;;;5018767;28;20049;-81
2023/01/21 04:28:04;;;;;;;16.27;6.68;;;-1.20;99.90;;;;;;5002433;28;20056;-77
2023/01/21 04:30:31;;;;;;;15.07;7.13;;;-1.20;99.90;;;;;;5035465;28;20037;-78
2023/01/21 04:32:59;;;;;;;10.73;6.78;;;-1.20;99.90;;;;;;5018703;28;20120;-80
2023/01/21 04:35:26;;;;;;;11.73;6.45;;;-1.30;99.90;;;;;;5018100;28;20042;-82
2023/01/21 04:37:52;;;;;;;12.57;7.30;;;-1.30;99.90;;;;;;5018231;28;20124;-79
2023/01/21 04:40:19;;;;;;;13.18;7.03;;;-1.30;99.90;;;;;;5018161;28;20476;-78
2023/01/21 04:42:46;;;;;;;12.10;7.72;;;-1.40;99.90;;;;;;5017690;28;20037;-80
2023/01/21 04:45:13;;;;;;;9.43;5.80;;;-1.40;99.90;;;;;;5036341;28;20059;-81
2023/01/21 04:47:39;;;;;;;9.32;7.00;;;-1.40;99.90;;;;;;5035566;28;20049;-77
2023/01/21 04:50:06;;;;;;;10.60;6.30;;;-1.40;99.90;;;;;;5034497;28;20057;-79
2023/01/21 04:52:32;;;;;;;12.82;6.30;;;-1.40;99.90;;;;;;5018615;28;20053;-80
2023/01/21 04:54:59;;;;;;;10.88;6.00;;;-1.40;99.90;;;;;;5035815;28;20041;-78
2023/01/21 04:57:26;;;;;;;11.88;7.35;;;-1.40;99.90;;;;;;5017011;28;20041;-78
2023/01/21 04:59:52;;;;;;;12.85;6.30;;;-1.50;99.90;;;;;;5017899;28;20049;-78
2023/01/21 05:02:19;;;;;;;12.85;7.28;;;-1.50;99.90;;;;;;5034506;28;20071;-79
2023/01/21 05:04:46;;;;;;;11.95;6.63;;;-1.50;99.90;;;;;;5017685;28;20045;-80
2023/01/21 05:07:13;;;;;;;11.68;7.10;;;-1.50;99.90;;;;;;5034902;28;20041;-78
2023/01/21 05:09:40;;;;;;;11.05;6.43;;;-1.50;99.90;;;;;;5016955;28;20543;-81
2023/01/21 05:12:06;;;;;;;14.77;7.00;;;-1.50;99.90;;;;;;5035167;28;20091;-80
2023/01/21 05:14:33;;;;;;;9.57;7.20;;;-1.50;99.90;;;;;;5017958;28;20144;-77
2023/01/21 05:17:00;;;;;;;14.00;6.55;;;-1.50;99.90;;;;;;5016947;28;20037;-78
2023/01/21 05:19:27;;;;;;;10.25;6.03;;;-1.60;99.90;;;;;;5017984;28;20045;-79
2023/01/21 05:21:53;;;;;;;13.95;7.78;;;-1.70;99.90;;;;;;5000541;28;20045;-80
2023/01/21 05:24:20;;;;;;;11.30;6.28;;;-1.70;99.90;;;;;;5017868;28;20037;-79
2023/01/21 05:26:48;;;;;;;9.95;6.40;;;-1.70;99.90;;;;;;5001150;28;20037;-78
2023/01/21 05:29:18;;;;;;;12.90;6.40;;;-1.70;99.90;;;;;;5034021;28;20045;-80
2023/01/21 05:31:44;;;;;;;11.68;6.57;;;-1.70;99.90;;;;;;5013342;28;20476;-77
2023/01/21 05:34:12;;;;;;;13.50;7.28;;;-1.70;99.90;;;;;;4997713;28;20052;-79
2023/01/21 05:36:38;;;;;;;9.88;6.88;;;-1.70;99.90;;;;;;4996828;28;20042;-78
2023/01/21 05:39:05;;;;;;;9.98;7.22;;;-1.80;99.90;;;;;;4997794;28;20152;-80
2023/01/21 05:41:32;;;;;;;11.63;5.97;;;-1.80;99.90;;;;;;4998115;28;20041;-78
2023/01/21 05:43:59;;;;;;;16.00;7.80;;;-1.80;99.90;;;;;;4997073;28;20128;-78
2023/01/21 05:46:25;;;;;;;10.93;6.53;;;-1.80;99.90;;;;;;5015296;28;20060;-80
2023/01/21 05:48:52;;;;;;;12.35;6.75;;;-1.80;99.90;;;;;;4996578;28;20339;-78
2023/01/21 05:51:19;;;;;;;15.40;6.97;;;-1.80;99.90;;;;;;4981641;28;20041;-78
2023/01/21 05:53:45;;;;;;;12.90;6.50;;;-1.80;99.90;;;;;;4997829;28;20041;-80
2023/01/21 05:56:12;;;;;;;9.32;6.38;;;-1.80;99.90;;;;;;4996495;28;20038;-80
2023/01/21 05:58:39;;;;;;;13.25;7.53;;;-1.80;99.90;;;;;;4997524;28;20056;-80
2023/01/21 06:01:05;;;;;;;11.18;6.53;;;-1.80;99.90;;;;;;5014830;28;20045;-80
2023/01/21 06:03:32;;;;;;;11.98;6.82;;;-1.70;99.90;;;;;;5014103;28;20053;-81
2023/01/21 06:05:59;;;;;;;11.18;7.10;;;-1.60;99.90;;;;;;5014847;28;20132;-78
2023/01/21 06:08:26;;;;;;;17.08;7.43;;;-1.50;99.90;;;;;;4997161;28;20473;-79
2023/01/21 06:10:55;;;;;;;10.88;7.18;;;-1.40;99.90;;;;;;4980440;28;20034;-79
2023/01/21 06:16:07;;;;;;;13.15;6.68;;;-1.40;99.90;;;;;;4996838;28;20045;-79
2023/01/21 06:18:34;;;;;;;10.07;6.82;;;-1.30;99.90;;;;;;5018618;28;20124;-81
2023/01/21 06:21:00;;;;;;;10.30;6.88;;;-1.20;99.90;;;;;;5018802;28;20042;-79
2023/01/21 06:23:27;;;;;;;10.80;7.50;;;-1.20;99.90;;;;;;5017846;28;20066;-79
2023/01/21 06:25:54;;;;;;;12.23;7.80;;;-1.10;99.90;;;;;;5001335;28;20077;-80
2023/01/21 06:28:21;;;;;;;13.93;8.63;;;-1.00;99.90;;;;;;4985070;28;20054;-81
2023/01/21 06:30:48;;;;;;;15.73;9.45;;;-0.90;99.90;;;;;;5000210;28;20046;-79
2023/01/21 06:33:15;;;;;;;17.45;8.77;;;-0.80;99.90;;;;;;5034791;28;20112;-80
2023/01/21 06:35:41;;;;;;;12.20;8.27;;;-0.80;99.90;;;;;;5037550;28;20034;-80
2023/01/21 06:38:08;;;;;;;13.55;8.52;;;-0.70;99.90;;;;;;5020752;28;20528;-80
2023/01/21 06:40:35;;;;;;;11.50;6.93;;;-0.70;99.90;;;;;;5038004;28;20080;-80
2023/01/21 06:43:02;;;;;;;12.23;7.53;;;-0.70;99.90;;;;;;5037346;28;20044;-80
2023/01/21 06:45:29;;;;;;;17.70;8.90;;;-0.70;99.90;;;;;;5038415;28;20056;-80
2023/01/21 06:47:56;;;;;;;18.67;9.27;;;-0.70;99.90;;;;;;5020295;28;20038;-79
2023/01/21 06:50:22;;;;;;;13.25;8.25;;;-0.70;99.90;;;;;;5019649;28;20049;-79
2023/01/21 06:52:49;;;;;;;11.30;7.38;;;-0.70;99.90;;;;;;5020593;28;20419;-80
2023/01/21 06:55:16;;;;;;;13.60;7.05;;;-0.70;99.90;;;;;;5036635;28;20124;-80
2023/01/21 06:57:42;;;;;;;19.13;10.13;;;-0.70;99.90;;;;;;5021763;28;20045;-80
2023/01/21 07:00:09;;;;;;;12.70;8.07;;;-0.70;99.90;;;;;;5038524;28;20050;-81
2023/01/21 07:02:36;;;;;;;13.35;8.15;;;-0.70;99.90;;;;;;5020156;28;20054;-81
2023/01/21 07:05:02;;;;;;;15.68;8.48;;;-0.70;99.90;;;;;;5020453;28;20060;-78
2023/01/21 07:07:29;;;;;;;16.42;10.05;;;-0.70;99.90;;;;;;5037508;28;20129;-80
2023/01/21 07:09:56;;;;;;;13.52;8.63;;;-0.70;99.90;;;;;;5019702;28;20068;-78
2023/01/21 07:12:22;;;;;;;14.70;8.18;;;-0.60;99.90;;;;;;5028690;28;20041;-80
2023/01/21 07:14:49;;;;;;;12.63;8.65;;;-0.70;99.90;;;;;;5037529;28;20041;-78
2023/01/21 07:17:16;;;;;;;15.32;8.88;;;-0.70;99.90;;;;;;5036813;28;20037;-79
2023/01/21 07:19:42;;;;;;;17.25;9.43;;;-0.90;99.90;;;;;;5020005;28;20037;-78
2023/01/21 07:22:09;;;;;;;18.98;9.85;;;-1.00;99.90;;;;;;5000881;28;20041;-80
2023/01/21 07:24:37;;;;;;;13.80;8.65;;;-1.10;99.90;;;;;;5020080;28;20080;-78
2023/01/21 07:27:05;;;;;;;12.48;8.30;;;-1.20;99.90;;;;;;5037055;28;20037;-79
2023/01/21 07:29:31;;;;;;;13.98;9.80;;;-1.20;99.90;;;;;;5018455;28;20052;-78
2023/01/21 07:31:58;;;;;;;14.98;8.38;;;-1.30;99.90;;;;;;5019770;28;20044;-79
2023/01/21 07:34:25;;;;;;;15.65;9.55;;;-1.30;99.90;;;;;;5019717;28;20432;-79
2023/01/21 07:36:51;;;;;;;15.65;9.18;;;-1.40;99.90;;;;;;5048978;28;20063;-79
2023/01/21 07:39:18;;;;;;;13.05;7.82;;;-1.50;99.90;;;;;;5039242;28;20446;-80
2023/01/21 07:41:45;;;;;;;16.45;10.02;;;-1.60;99.90;;;;;;5045193;28;20045;-79
2023/01/21 07:44:12;;;;;;;28.13;9.57;;;-1.60;99.90;;;;;;5036064;28;20037;-80
2023/01/21 07:46:39;;;;;;;13.50;9.85;;;-1.60;99.90;;;;;;5037100;28;20038;-79
2023/01/21 07:49:06;;;;;;;17.50;9.85;;;-1.60;99.90;;;;;;5035724;28;20484;-79
2023/01/21 07:51:32;;;;;;;13.57;9.27;;;-1.60;99.90;;;;;;5026446;28;20047;-80
2023/01/21 07:53:59;;;;;;;18.52;11.15;;;-1.70;99.90;;;;;;5039346;28;20052;-79
2023/01/21 07:56:26;;;;;;;18.13;10.63;;;-1.70;99.90;;;;;;5035433;28;20038;-79
2023/01/21 07:58:53;;;;;;;14.48;9.52;;;-1.60;99.90;;;;;;4999738;28;20060;-80
2023/01/21 08:01:20;;;;;;;18.70;10.77;;;-1.60;99.90;;;;;;4999835;28;20092;-79
2023/01/21 08:03:51;;;;;;;14.57;9.18;;;-1.80;99.90;;;;;;5015774;28;20049;-80
2023/01/21 08:06:18;;;;;;;15.10;9.55;;;-1.80;99.90;;;;;;5016394;28;20057;-79
2023/01/21 08:08:45;;;;;;;13.70;9.13;;;-1.70;99.90;;;;;;5014943;28;20053;-79
2023/01/21 08:11:11;;;;;;;16.35;10.35;;;-1.80;99.90;;;;;;5016910;28;20377;-80
2023/01/21 08:13:38;;;;;;;15.65;9.95;;;-1.80;99.90;;;;;;4999189;28;20042;-79
2023/01/21 08:16:05;;;;;;;22.35;11.13;;;-1.80;99.90;;;;;;4998036;28;20056;-79
2023/01/21 08:18:31;;;;;;;15.80;10.85;;;-1.80;99.90;;;;;;5016348;28;20049;-80
2023/01/21 08:20:58;;;;;;;16.77;9.50;;;-1.70;99.90;;;;;;5006366;28;20384;-79
2023/01/21 08:23:25;;;;;;;14.82;9.93;;;-1.70;99.90;;;;;;5016894;28;20064;-80
2023/01/21 08:25:52;;;;;;;17.90;10.82;;;-1.70;99.90;;;;;;5017987;28;20448;-79
2023/01/21 08:28:19;;;;;;;18.33;10.05;;;-1.80;99.90;;;;;;5035802;28;20123;-79
2023/01/21 08:30:45;;;;;;;16.05;11.32;;;-1.80;99.90;;;;;;5017385;28;20508;-79
2023/01/21 08:33:12;;;;;;;17.25;10.40;;;-1.70;99.90;;;;;;5018309;28;20132;-79
2023/01/21 08:35:39;;;;;;;22.98;11.80;;;-1.70;99.90;;;;;;4986724;28;20052;-79
2023/01/21 08:38:05;;;;;;;15.95;9.75;;;-1.60;99.90;;;;;;4998257;28;20046;-79
2023/01/21 08:40:32;;;;;;;18.77;11.13;;;-1.60;99.90;;;;;;5000347;28;20477;-79
2023/01/21 08:42:59;;;;;;;18.90;10.38;;;-1.50;99.90;;;;;;5021800;28;20095;-79
2023/01/21 08:45:25;;;;;;;13.07;8.77;;;-1.40;99.90;;;;;;5003421;28;20128;-79
2023/01/21 08:47:52;;;;;;;21.52;12.63;;;-1.40;99.90;;;;;;5022841;28;20103;-79
2023/01/21 08:50:19;;;;;;;17.80;11.05;;;-1.30;99.90;;;;;;5016786;28;20137;-79
2023/01/21 08:52:46;;;;;;;14.05;9.73;;;-1.30;99.90;;;;;;5008188;28;20048;-79
2023/01/21 08:55:12;;;;;;;16.92;10.75;;;-1.20;99.90;;;;;;5013001;28;20042;-78
2023/01/21 08:57:39;;;;;;;19.85;11.88;;;-1.10;99.90;;;;;;5027794;28;20471;-79
2023/01/21 09:00:06;;;;;;;16.00;10.20;;;-1.10;99.90;;;;;;5011754;28;20429;-80
2023/01/21 09:02:32;;;;;;;15.63;10.25;;;-1.00;99.90;;;;;;4998067;28;20037;-80
2023/01/21 09:04:59;;;;;;;16.50;10.30;;;-0.90;99.90;;;;;;5017739;28;20052;-80
2023/01/21 09:07:26;;;;;;;16.35;10.02;;;-0.80;99.90;;;;;;5017397;28;20060;-79
2023/01/21 09:09:52;;;;;;;17.88;10.48;;;-0.80;99.90;;;;;;5016453;28;20052;-79
2023/01/21 09:12:19;;;;;;;18.30;10.52;;;-0.60;99.90;;;;;;5017670;28;20049;-79
2023/01/21 09:14:46;;;;;;;20.30;12.93;;;-0.50;99.90;;;;;;5017658;28;20444;-79
2023/01/21 09:17:12;;;;;;;19.40;11.52;;;-0.40;99.90;;;;;;5015838;28;20045;-79
2023/01/21 09:19:39;;;;;;;17.83;11.05;;;-0.30;99.90;;;;;;5017763;28;20037;-81
2023/01/21 09:22:07;;;;;;;17.33;11.10;;;-0.30;99.90;;;;;;5034261;28;20055;-80
2023/01/21 09:24:34;;;;;;;17.92;11.25;;;-0.20;99.90;;;;;;5001597;28;20041;-81
2023/01/21 09:27:00;;;;;;;16.73;11.85;;;-0.20;99.90;;;;;;5017892;28;20074;-81
2023/01/21 09:29:27;;;;;;;17.33;10.32;;;-0.10;99.90;;;;;;5016889;28;20475;-82
2023/01/21 09:31:54;;;;;;;19.20;10.77;;;0.00;99.90;;;;;;5017371;28;20041;-83
2023/01/21 09:34:21;;;;;;;18.40;11.20;;;0.10;99.90;;;;;;5017653;28;20065;-81
2023/01/21 09:36:48;;;;;;;22.48;12.98;;;0.20;99.90;;;;;;5017008;28;20073;-81
2023/01/21 09:39:15;;;;;;;20.80;11.80;;;0.30;99.90;;;;;;5034595;28;20056;-82
2023/01/21 09:41:43;;;;;;;20.20;12.25;;;0.40;99.90;;;;;;5017434;28;20045;-80
2023/01/21 09:44:11;;;;;;;22.58;12.50;;;0.50;99.90;;;;;;5000380;28;20045;-82
2023/01/21 09:46:38;;;;;;;18.73;12.20;;;0.50;99.90;;;;;;5000857;28;20076;-82
2023/01/21 09:49:04;;;;;;;20.90;12.02;;;0.60;99.90;;;;;;5015396;28;20072;-80
2023/01/21 09:51:31;;;;;;;18.65;11.95;;;0.70;99.90;;;;;;5016826;28;20046;-80
2023/01/21 09:53:59;;;;;;;18.88;11.68;;;0.80;99.90;;;;;;5017437;28;20052;-80
2023/01/21 09:56:26;;;;;;;20.27;12.75;;;0.90;99.90;;;;;;5000019;28;20037;-81
2023/01/21 09:58:52;;;;;;;17.98;12.35;;;1.00;99.90;;;;;;5034620;28;20109;-81
2023/01/21 10:01:19;;;;;;;20.25;13.18;;;1.30;99.90;;;;;;5017217;28;20125;-81
2023/01/21 10:03:47;;;;;;;20.58;12.93;;;1.50;99.90;;;;;;5016546;28;20068;-82
2023/01/21 10:06:13;;;;;;;21.58;13.00;;;1.70;99.90;;;;;;5016647;28;20049;-81
2023/01/21 10:08:40;;;;;;;22.98;11.43;;;2.00;99.90;;;;;;5014942;28;20045;-82
2023/01/21 10:11:07;;;;;;;22.52;12.75;;;2.20;99.90;;;;;;5016250;28;20042;-81
2023/01/21 10:13:34;;;;;;;20.70;12.80;;;2.40;99.90;;;;;;5034429;28;20124;-81
2023/01/21 10:16:00;;;;;;;21.98;13.43;;;2.60;99.90;;;;;;5032382;28;20043;-81
2023/01/21 10:18:27;;;;;;;16.45;11.15;;;2.80;99.90;;;;;;5017111;28;20037;-81
2023/01/21 10:20:56;;;;;;;21.83;14.00;;;2.90;99.90;;;;;;5016918;28;20053;-81
2023/01/21 10:23:24;;;;;;;20.20;13.30;;;3.10;99.90;;;;;;4999339;28;20037;-81
2023/01/21 10:25:51;;;;;;;20.45;12.20;;;3.20;99.90;;;;;;5016590;28;20052;-81
2023/01/21 10:28:17;;;;;;;18.67;12.93;;;3.40;99.90;;;;;;5015729;28;20060;-79
2023/01/21 10:30:44;;;;;;;19.60;12.07;;;3.60;99.90;;;;;;5012824;28;20061;-80
2023/01/21 10:33:11;;;;;;;20.35;12.90;;;3.80;99.90;;;;;;4981186;28;20038;-81
2023/01/21 10:35:38;;;;;;;18.25;12.35;;;4.00;99.90;;;;;;4980395;28;20379;-80
2023/01/21 10:38:05;;;;;;;15.77;11.82;;;4.20;99.90;;;;;;5014044;28;20049;-80
2023/01/21 10:40:43;;;;;;;21.10;12.82;;;4.30;99.90;;;;;;5014242;28;20046;-80
2023/01/21 10:43:10;;;;;;;18.33;12.48;;;4.50;99.90;;;;;;5013346;28;20041;-80
2023/01/21 10:45:37;;;;;;;22.70;13.85;;;4.70;99.90;;;;;;4997326;28;20049;-80
2023/01/21 10:48:03;;;;;;;17.20;12.57;;;4.80;99.90;;;;;;5013859;28;20057;-80
2023/01/21 10:50:30;;;;;;;17.77;12.70;;;4.90;99.90;;;;;;5013054;28;20402;-80
2023/01/21 10:52:58;;;;;;;20.50;14.32;;;5.00;99.90;;;;;;4996958;28;20050;-80
2023/01/21 10:55:25;;;;;;;20.42;13.43;;;5.20;99.90;;;;;;4996198;28;20057;-83
2023/01/21 10:57:51;;;;;;;16.73;12.75;;;5.30;99.90;;;;;;4997233;28;20121;-82
2023/01/21 11:00:18;;;;;;;20.05;13.55;;;5.40;99.90;;;;;;4996681;28;20084;-84
2023/01/21 11:02:49;;;;;;;19.08;13.30;;;5.60;99.90;;;;;;4996408;28;20054;-81
2023/01/21 11:05:15;;;;;;;19.30;13.52;;;5.70;99.90;;;;;;5000403;28;20060;-81
2023/01/21 11:07:43;;;;;;;22.73;14.40;;;5.80;99.90;;;;;;5017243;28;20061;-79
2023/01/21 11:10:09;;;;;;;19.70;14.60;;;6.00;99.90;;;;;;4999578;28;20122;-83
2023/01/21 11:12:37;;;;;;;19.58;13.48;;;6.30;99.90;;;;;;5000301;28;20360;-81
2023/01/21 11:15:04;;;;;;;19.50;13.63;;;6.50;99.90;;;;;;4999889;28;20112;-82
2023/01/21 11:17:30;;;;;;;22.45;14.55;;;6.70;99.90;;;;;;5017238;28;20038;-82
2023/01/21 11:19:57;;;;;;;21.67;15.60;;;6.80;99.90;;;;;;5002183;28;20034;-81
2023/01/21 11:22:25;;;;;;;20.60;12.80;;;6.90;99.90;;;;;;5011598;28;20053;-80
2023/01/21 11:24:51;;;;;;;18.83;12.60;;;6.90;99.90;;;;;;5027848;28;20479;-80
2023/01/21 11:27:18;;;;;;;18.98;13.68;;;7.10;99.90;;;;;;5012840;28;20046;-80
2023/01/21 11:29:45;;;;;;;17.25;12.15;;;7.30;99.90;;;;;;5017238;28;20491;-79
2023/01/21 11:32:11;;;;;;;19.33;13.98;;;7.50;99.90;;;;;;5024896;28;20034;-81
2023/01/21 11:34:40;;;;;;;18.05;14.05;;;7.60;99.90;;;;;;5006408;28;20371;-80
2023/01/21 11:37:07;;;;;;;18.05;13.20;;;7.80;99.90;;;;;;5018690;28;20041;-81
2023/01/21 11:39:34;;;;;;;18.65;13.73;;;8.00;99.90;;;;;;5019403;28;20380;-80
2023/01/21 11:42:00;;;;;;;20.92;14.98;;;8.20;99.90;;;;;;5015089;28;20483;-81
2023/01/21 11:44:28;;;;;;;19.88;14.13;;;8.40;99.90;;;;;;5000037;28;20049;-81
2023/01/21 11:46:55;;;;;;;21.15;13.55;;;8.50;99.90;;;;;;5016897;28;20054;-81
2023/01/21 11:49:21;;;;;;;14.18;9.95;;;8.60;99.90;;;;;;5015462;28;20116;-80
2023/01/21 11:51:48;;;;;;;14.07;9.48;;;8.30;99.90;;;;;;5011020;28;20042;-80
2023/01/21 11:57:02;;;;;;;16.90;10.85;;;7.30;99.90;;;;;;5035430;28;20140;-81
2023/01/21 11:59:28;;;;;;;15.73;10.07;;;6.40;99.90;;;;;;5002891;28;20054;-80
2023/01/21 12:01:58;;;;;;;18.17;11.80;;;6.00;99.90;;;;;;5018843;28;20071;-79
2023/01/21 12:04:25;;;;;;;20.55;12.85;;;5.70;99.90;;;;;;5036266;28;20403;-79
2023/01/21 12:06:56;;;;;;;19.35;11.40;;;5.50;99.90;;;;;;5019236;28;20045;-79
2023/01/21 12:09:23;;;;;;;17.20;11.05;;;5.30;99.90;;;;;;5035692;28;20392;-79
2023/01/21 12:11:49;;;;;;;17.67;10.10;;;5.10;99.90;;;;;;5035977;28;20049;-79
2023/01/21 12:14:17;;;;;;;26.75;12.15;;;5.00;99.90;;;;;;5019754;28;20044;-79
2023/01/21 12:16:44;;;;;;;19.52;12.57;;;5.00;99.90;;;;;;5032303;28;20038;-79
2023/01/21 12:19:15;;;;;;;16.40;10.57;;;4.90;99.90;;;;;;5029468;28;20482;-82
2023/01/21 12:21:41;;;;;;;20.17;11.50;;;4.80;99.90;;;;;;5018881;28;20034;-81
2023/01/21 12:24:09;;;;;;;20.13;11.73;;;4.70;99.90;;;;;;5034025;28;20049;-84
2023/01/21 12:26:36;;;;;;;18.27;11.68;;;4.70;99.90;;;;;;5018016;28;20391;-79
2023/01/21 12:29:03;;;;;;;19.20;11.20;;;4.70;99.90;;;;;;5033791;28;20046;-80
2023/01/21 12:31:32;;;;;;;23.30;13.13;;;4.70;99.90;;;;;;5015041;28;20048;-78
2023/01/21 12:34:00;;;;;;;19.33;12.00;;;4.60;99.90;;;;;;4995951;28;20044;-78
2023/01/21 12:36:27;;;;;;;17.35;9.75;;;4.60;99.90;;;;;;5034288;28;20038;-78
2023/01/21 12:38:54;;;;;;;15.95;9.77;;;4.60;99.90;;;;;;5018108;28;20049;-79
2023/01/21 12:41:20;;;;;;;18.42;9.75;;;4.70;99.90;;;;;;5018226;28;20049;-78
2023/01/21 12:43:47;;;;;;;15.10;9.38;;;4.70;99.90;;;;;;4999133;28;20132;-79
2023/01/21 12:46:14;;;;;;;19.48;10.98;;;4.70;99.90;;;;;;5034378;28;20050;-78
2023/01/21 12:48:40;;;;;;;17.35;10.05;;;4.80;99.90;;;;;;5016773;28;20088;-78
2023/01/21 12:51:07;;;;;;;17.15;11.70;;;4.70;99.90;;;;;;5016460;28;20365;-79
2023/01/21 12:53:35;;;;;;;15.23;10.75;;;4.70;99.90;;;;;;5013911;28;20046;-77
2023/01/21 12:56:02;;;;;;;17.60;10.07;;;4.80;99.90;;;;;;5012840;28;20349;-81